Time;durP1;ratioP1;P1;durP2;ratioP2;P2;SDS_P1;SDS_P2;PMS_P1;PMS_P2;Temp;Humidity;BMP_temperature;BMP_pressure;BME280_temperature;BME280_humidity;BME280_pressure;Samples;Min_cycle;Max_cycle;Signal;HPM_P1;HPM_P2
2021/04/04 00:01:46;;;;;;;1.70;1.05;;;3.20;99.90;;;;;;4982036;28;20050;-64
2021/04/04 00:04:13;;;;;;;8.02;2.08;;;3.30;99.90;;;;;;4981607;28;20062;-64
2021/04/04 00:06:39;;;;;;;3.60;1.45;;;3.30;99.90;;;;;;4978492;28;20051;-64
2021/04/04 00:09:06;;;;;;;3.20;1.08;;;3.30;99.90;;;;;;4981096;28;20105;-62
2021/04/04 00:11:33;;;;;;;2.63;0.95;;;3.30;99.90;;;;;;4981390;28;20515;-63
2021/04/04 00:13:59;;;;;;;4.65;1.33;;;3.30;99.90;;;;;;4976621;28;20053;-63
2021/04/04 00:16:26;;;;;;;3.17;0.95;;;3.20;99.90;;;;;;4978315;28;20077;-62
2021/04/04 00:18:53;;;;;;;6.53;1.17;;;3.20;99.90;;;;;;4982521;28;20050;-64
2021/04/04 00:21:20;;;;;;;3.28;1.20;;;3.20;99.90;;;;;;4980505;28;20068;-66
2021/04/04 00:23:46;;;;;;;6.35;1.23;;;3.20;99.90;;;;;;4981319;28;20089;-66
2021/04/04 00:26:12;;;;;;;2.85;1.27;;;3.10;99.90;;;;;;4979468;28;20527;-62
2021/04/04 00:28:39;;;;;;;4.88;1.38;;;3.20;99.90;;;;;;4981073;28;20128;-62
2021/04/04 00:31:05;;;;;;;3.90;1.48;;;3.10;99.90;;;;;;4982248;28;20050;-62
2021/04/04 00:33:32;;;;;;;2.85;2.08;;;3.10;99.90;;;;;;4979757;28;20047;-62
2021/04/04 00:35:59;;;;;;;1.58;0.90;;;3.10;99.90;;;;;;4978797;28;20128;-63
2021/04/04 00:38:25;;;;;;;2.75;1.27;;;3.10;99.90;;;;;;4978278;28;20124;-62
2021/04/04 00:40:52;;;;;;;3.38;0.90;;;3.10;99.90;;;;;;4979705;28;20054;-62
2021/04/04 00:43:18;;;;;;;4.18;0.90;;;3.10;99.90;;;;;;5011297;28;20054;-62
2021/04/04 00:45:45;;;;;;;2.78;1.20;;;3.10;99.90;;;;;;4980398;28;20488;-66
2021/04/04 00:48:11;;;;;;;5.50;1.23;;;3.10;99.90;;;;;;4979465;28;20042;-63
2021/04/04 00:50:39;;;;;;;8.32;1.73;;;3.00;99.90;;;;;;4980275;28;20053;-62
2021/04/04 00:53:07;;;;;;;5.43;1.38;;;3.00;99.90;;;;;;4980408;28;20046;-64
2021/04/04 00:55:34;;;;;;;2.55;1.33;;;3.00;99.90;;;;;;4980936;28;20061;-66
2021/04/04 00:58:01;;;;;;;2.92;1.00;;;3.00;99.90;;;;;;4980672;28;20050;-64
2021/04/04 01:00:30;;;;;;;3.05;1.92;;;3.00;99.90;;;;;;4978767;28;20157;-63
2021/04/04 01:02:57;;;;;;;5.00;0.80;;;3.00;99.90;;;;;;4981982;28;20050;-65
2021/04/04 01:05:27;;;;;;;7.00;1.58;;;3.00;99.90;;;;;;4976414;28;20061;-64
2021/04/04 01:07:56;;;;;;;;;;;3.00;99.90;;;;;;4977135;28;20106;-64
2021/04/04 01:10:26;;;;;;;1.80;1.05;;;3.00;99.90;;;;;;4977724;28;20356;-64
2021/04/04 01:13:19;;;;;;;5.13;2.38;;;3.00;99.90;;;;;;4979455;28;20109;-65
2021/04/04 01:16:06;;;;;;;4.13;1.30;;;3.00;99.90;;;;;;4978460;28;20100;-67
2021/04/04 01:19:03;;;;;;;4.55;1.75;;;2.90;99.90;;;;;;4979639;28;20050;-64
2021/04/04 01:21:40;;;;;;;4.60;2.58;;;2.90;99.90;;;;;;4976309;28;20472;-67
2021/04/04 01:24:30;;;;;;;3.72;0.82;;;2.80;99.90;;;;;;4981155;28;20058;-64
2021/04/04 01:27:05;;;;;;;3.40;1.07;;;2.80;99.90;;;;;;4979338;28;20050;-62
2021/04/04 01:29:34;;;;;;;2.58;1.33;;;2.80;99.90;;;;;;4978345;28;20348;-63
2021/04/04 01:32:00;;;;;;;8.07;1.73;;;2.80;99.90;;;;;;4977264;28;20073;-64
2021/04/04 01:34:29;;;;;;;2.15;1.38;;;2.80;99.90;;;;;;4973381;28;20458;-64
2021/04/04 01:37:03;;;;;;;3.70;1.42;;;2.80;99.90;;;;;;4978823;28;20046;-63
2021/04/04 01:39:34;;;;;;;3.40;1.13;;;2.80;99.90;;;;;;4974661;28;20165;-68
2021/04/04 01:42:01;;;;;;;1.90;1.17;;;2.70;99.90;;;;;;4978973;28;20046;-67
2021/04/04 01:44:29;;;;;;;7.35;1.20;;;2.70;99.90;;;;;;4981734;28;20078;-68
2021/04/04 01:46:57;;;;;;;2.15;1.00;;;2.70;99.90;;;;;;4979580;28;20133;-66
2021/04/04 01:49:25;;;;;;;5.90;1.27;;;2.60;99.90;;;;;;4980088;28;20104;-65
2021/04/04 01:51:53;;;;;;;3.13;0.93;;;2.60;99.90;;;;;;4977634;28;20050;-64
2021/04/04 01:54:20;;;;;;;3.70;1.10;;;2.60;99.90;;;;;;4981068;28;20050;-62
2021/04/04 01:56:48;;;;;;;6.13;1.30;;;2.60;99.90;;;;;;4978133;28;20050;-63
2021/04/04 01:59:15;;;;;;;6.38;1.35;;;2.70;99.90;;;;;;4980626;28;20058;-66
2021/04/04 02:01:47;;;;;;;3.85;1.27;;;2.60;99.90;;;;;;4978077;28;20057;-63
2021/04/04 02:04:14;;;;;;;5.40;1.52;;;2.70;99.90;;;;;;4978159;28;20054;-67
2021/04/04 02:06:44;;;;;;;4.35;1.17;;;2.70;99.90;;;;;;4973445;28;20085;-63
2021/04/04 02:09:14;;;;;;;7.43;1.33;;;2.70;99.90;;;;;;4974999;28;20057;-66
2021/04/04 02:11:42;;;;;;;3.42;1.17;;;2.70;99.90;;;;;;4971721;28;20051;-66
2021/04/04 02:14:21;;;;;;;6.25;1.33;;;2.60;99.90;;;;;;4979314;28;20113;-64
2021/04/04 02:16:50;;;;;;;9.98;1.48;;;2.60;99.90;;;;;;4973551;28;20125;-62
2021/04/04 02:19:19;;;;;;;5.35;1.98;;;2.60;99.90;;;;;;4975406;28;20397;-66
2021/04/04 02:21:49;;;;;;;4.13;1.15;;;2.70;99.90;;;;;;4976448;28;20131;-63
2021/04/04 02:24:16;;;;;;;3.55;1.67;;;2.70;99.90;;;;;;4977378;28;20408;-62
2021/04/04 02:26:43;;;;;;;2.70;1.10;;;2.70;99.90;;;;;;4976928;28;20129;-63
2021/04/04 02:29:10;;;;;;;2.33;1.00;;;2.70;99.90;;;;;;4980666;28;20149;-62
2021/04/04 02:31:42;;;;;;;11.02;1.88;;;2.80;99.90;;;;;;4978445;28;20093;-62
2021/04/04 02:34:16;;;;;;;4.82;1.10;;;2.70;99.90;;;;;;4978179;28;20053;-62
2021/04/04 02:36:43;;;;;;;3.80;1.70;;;2.70;99.90;;;;;;4978955;28;20065;-63
2021/04/04 02:39:26;;;;;;;4.97;1.50;;;2.80;99.90;;;;;;4973226;28;20051;-68
2021/04/04 02:41:54;;;;;;;3.13;1.20;;;2.80;99.90;;;;;;4977680;28;20157;-65
2021/04/04 02:44:22;;;;;;;3.95;1.55;;;2.70;99.90;;;;;;4978128;28;20140;-65
2021/04/04 02:46:54;;;;;;;3.88;1.92;;;2.70;99.90;;;;;;4977444;28;20053;-63
2021/04/04 02:49:22;;;;;;;3.95;1.42;;;2.70;99.90;;;;;;4976034;28;20046;-67
2021/04/04 02:51:52;;;;;;;3.80;1.90;;;2.70;99.90;;;;;;4979766;28;20416;-67
2021/04/04 02:54:24;;;;;;;;;;;2.70;99.90;;;;;;4975939;28;20050;-62
2021/04/04 02:56:53;;;;;;;2.80;0.98;;;2.70;99.90;;;;;;4975114;28;19929;-63
2021/04/04 02:59:26;;;;;;;3.47;0.88;;;2.70;99.90;;;;;;4979290;28;20050;-62
2021/04/04 03:01:54;;;;;;;3.40;1.30;;;2.60;99.90;;;;;;4978022;28;20043;-66
2021/04/04 03:04:22;;;;;;;4.63;1.98;;;2.70;99.90;;;;;;4977341;28;20058;-63
2021/04/04 03:06:50;;;;;;;4.45;1.02;;;2.60;99.90;;;;;;4979750;28;20448;-62
2021/04/04 03:09:19;;;;;;;5.32;1.27;;;2.70;99.90;;;;;;4977251;28;20484;-64
2021/04/04 03:11:47;;;;;;;3.67;1.15;;;2.70;99.90;;;;;;4972529;28;20662;-63
2021/04/04 03:14:16;;;;;;;4.97;1.80;;;2.70;99.90;;;;;;4973893;28;20053;-63
2021/04/04 03:16:43;;;;;;;3.42;1.33;;;2.60;99.90;;;;;;4977521;28;20146;-63
2021/04/04 03:19:14;;;;;;;2.58;1.70;;;2.60;99.90;;;;;;4979073;28;20061;-64
2021/04/04 03:21:41;;;;;;;2.03;1.27;;;2.60;99.90;;;;;;4979713;28;20077;-64
2021/04/04 03:24:09;;;;;;;6.65;1.38;;;2.60;99.90;;;;;;4975839;28;20046;-62
2021/04/04 03:26:38;;;;;;;4.72;1.40;;;2.60;99.90;;;;;;4983156;28;20604;-66
2021/04/04 03:29:07;;;;;;;7.57;1.30;;;2.60;99.90;;;;;;4979311;28;20070;-65
2021/04/04 03:31:35;;;;;;;7.78;1.67;;;2.60;99.90;;;;;;4979326;28;20046;-67
2021/04/04 03:34:02;;;;;;;5.15;1.67;;;2.60;99.90;;;;;;4977239;28;20051;-63
2021/04/04 03:36:30;;;;;;;3.78;1.50;;;2.60;99.90;;;;;;4972265;28;20412;-67
2021/04/04 03:38:57;;;;;;;3.65;1.50;;;2.60;99.90;;;;;;4976276;28;20116;-64
2021/04/04 03:41:25;;;;;;;2.45;1.20;;;2.60;99.90;;;;;;4980867;28;20149;-64
2021/04/04 03:43:53;;;;;;;4.60;1.08;;;2.60;99.90;;;;;;4977454;28;20046;-67
2021/04/04 03:46:24;;;;;;;12.50;2.97;;;2.60;99.90;;;;;;4976503;28;20054;-65
2021/04/04 03:48:53;;;;;;;2.75;1.35;;;2.60;99.90;;;;;;4977427;28;20425;-65
2021/04/04 03:51:25;;;;;;;1.67;1.27;;;2.60;99.90;;;;;;4981651;28;20050;-67
2021/04/04 03:53:53;;;;;;;2.42;1.00;;;2.50;99.90;;;;;;4975734;28;20054;-63
2021/04/04 03:56:29;;;;;;;3.15;1.38;;;2.60;99.90;;;;;;4977085;28;20227;-62
2021/04/04 03:59:05;;;;;;;5.03;1.30;;;2.60;99.90;;;;;;4977537;28;20046;-62
2021/04/04 04:01:34;;;;;;;6.38;1.75;;;2.60;99.90;;;;;;4977050;28;20058;-62
2021/04/04 04:04:02;;;;;;;2.92;1.52;;;2.50;99.90;;;;;;4979553;28;20065;-62
2021/04/04 04:06:32;;;;;;;6.00;1.55;;;2.50;99.90;;;;;;4977227;28;20046;-64
2021/04/04 04:09:03;;;;;;;2.80;1.08;;;2.50;99.90;;;;;;4978900;28;20050;-64
2021/04/04 04:11:30;;;;;;;2.35;1.20;;;2.50;99.90;;;;;;4983013;28;20133;-62
2021/04/04 04:13:58;;;;;;;5.88;1.00;;;2.50;99.90;;;;;;4979818;28;20118;-67
2021/04/04 04:16:25;;;;;;;3.78;0.88;;;2.50;99.90;;;;;;4979722;28;20074;-66
2021/04/04 04:18:52;;;;;;;2.95;1.85;;;2.50;99.90;;;;;;4979383;28;20069;-62
2021/04/04 04:21:18;;;;;;;6.78;2.03;;;2.40;99.90;;;;;;4977789;28;20046;-65
2021/04/04 04:23:46;;;;;;;2.85;1.83;;;2.50;99.90;;;;;;4981170;28;20077;-62
2021/04/04 04:26:14;;;;;;;5.03;2.42;;;2.50;99.90;;;;;;4980934;28;20413;-62
2021/04/04 04:28:43;;;;;;;4.10;1.08;;;2.40;99.90;;;;;;4980575;28;20054;-68
2021/04/04 04:31:16;;;;;;;2.60;1.50;;;2.40;99.90;;;;;;4979608;28;20054;-63
2021/04/04 04:33:47;;;;;;;1.58;1.10;;;2.50;99.90;;;;;;4981294;28;20121;-64
2021/04/04 04:36:15;;;;;;;1.90;0.90;;;2.50;99.90;;;;;;4979237;28;20069;-63
2021/04/04 04:38:43;;;;;;;8.50;1.50;;;2.50;99.90;;;;;;4980050;28;20058;-63
2021/04/04 04:41:11;;;;;;;6.10;1.38;;;2.50;99.90;;;;;;4979857;28;20047;-62
2021/04/04 04:43:42;;;;;;;3.20;1.52;;;2.50;99.90;;;;;;4981569;28;20047;-63
2021/04/04 04:46:11;;;;;;;5.82;1.20;;;2.50;99.90;;;;;;4979763;28;20054;-66
2021/04/04 04:48:38;;;;;;;4.57;1.50;;;2.50;99.90;;;;;;4981517;28;20115;-62
2021/04/04 04:51:05;;;;;;;8.35;2.03;;;2.50;99.90;;;;;;4980994;28;20054;-63
2021/04/04 04:53:32;;;;;;;5.10;1.40;;;2.60;99.90;;;;;;4972779;28;20136;-65
2021/04/04 04:56:03;;;;;;;3.15;1.17;;;2.60;99.90;;;;;;4980989;28;20413;-65
2021/04/04 04:58:35;;;;;;;6.25;2.00;;;2.60;99.90;;;;;;4976722;28;20058;-65
2021/04/04 05:01:07;;;;;;;7.03;1.48;;;2.60;99.90;;;;;;4981368;28;20054;-67
2021/04/04 05:03:33;;;;;;;4.72;2.30;;;2.60;99.90;;;;;;4982026;28;20153;-64
2021/04/04 05:06:04;;;;;;;7.75;1.67;;;2.60;99.90;;;;;;4980877;28;20058;-65
2021/04/04 05:08:32;;;;;;;5.40;1.67;;;2.60;99.90;;;;;;4980943;28;20704;-62
2021/04/04 05:11:04;;;;;;;8.48;3.50;;;2.70;99.90;;;;;;4980852;28;20054;-62
2021/04/04 05:13:31;;;;;;;2.60;1.52;;;2.70;99.90;;;;;;4982685;28;20064;-64
2021/04/04 05:15:59;;;;;;;7.22;1.70;;;2.70;99.90;;;;;;4977893;28;20058;-63
2021/04/04 05:18:26;;;;;;;5.32;1.63;;;2.70;99.90;;;;;;4980672;28;20101;-62
2021/04/04 05:20:52;;;;;;;4.35;1.48;;;2.70;99.90;;;;;;4978316;28;20501;-64
2021/04/04 05:23:21;;;;;;;2.97;1.10;;;2.80;99.90;;;;;;4985761;28;20049;-62
2021/04/04 05:25:51;;;;;;;1.98;1.67;;;2.80;99.90;;;;;;4978359;28;20046;-62
2021/04/04 05:28:18;;;;;;;4.45;1.55;;;2.80;99.90;;;;;;4982846;28;20042;-62
2021/04/04 05:30:45;;;;;;;3.97;1.17;;;2.90;99.90;;;;;;4980536;28;20054;-63
2021/04/04 05:33:12;;;;;;;3.72;1.40;;;2.90;99.90;;;;;;4979050;28;20053;-64
2021/04/04 05:35:41;;;;;;;7.05;1.67;;;2.90;99.90;;;;;;4979284;28;20042;-63
2021/04/04 05:38:10;;;;;;;4.05;1.33;;;3.00;99.90;;;;;;4979988;28;20085;-64
2021/04/04 05:40:37;;;;;;;3.75;1.00;;;3.00;99.90;;;;;;4978808;28;20133;-66
2021/04/04 05:43:13;;;;;;;1.83;1.50;;;3.00;99.90;;;;;;4981170;28;20050;-62
2021/04/04 05:45:48;;;;;;;4.05;1.23;;;3.00;99.90;;;;;;4980316;28;20051;-64
2021/04/04 05:48:20;;;;;;;4.38;1.63;;;3.10;99.90;;;;;;4979201;28;20108;-67
2021/04/04 05:51:04;;;;;;;6.32;1.13;;;3.10;99.90;;;;;;4977985;28;20046;-62
2021/04/04 05:54:05;;;;;;;2.08;1.10;;;3.10;99.90;;;;;;4984591;28;20124;-64
2021/04/04 05:56:46;;;;;;;11.45;1.58;;;3.20;99.90;;;;;;4961175;28;20049;-64
2021/04/04 05:59:17;;;;;;;4.63;1.63;;;3.20;99.90;;;;;;4985653;28;20054;-62
2021/04/04 06:02:02;;;;;;;2.35;1.20;;;3.30;99.90;;;;;;4980340;28;20053;-64
2021/04/04 06:05:02;;;;;;;4.85;1.30;;;3.40;99.90;;;;;;4979022;28;20058;-62
2021/04/04 06:07:54;;;;;;;2.35;1.20;;;3.40;99.90;;;;;;4979296;28;20130;-65
2021/04/04 06:10:20;;;;;;;2.25;1.10;;;3.40;99.90;;;;;;4979486;28;20058;-62
2021/04/04 06:13:29;;;;;;;3.10;1.52;;;3.50;99.90;;;;;;4980250;28;20144;-63
2021/04/04 06:16:02;;;;;;;3.58;1.50;;;3.50;99.90;;;;;;4967348;28;20128;-62
2021/04/04 06:18:59;;;;;;;2.67;1.48;;;3.50;99.90;;;;;;4977785;28;20156;-66
2021/04/04 06:21:54;;;;;;;2.85;1.65;;;3.50;99.90;;;;;;4979927;28;20613;-62
2021/04/04 06:24:34;;;;;;;3.85;1.13;;;3.60;99.90;;;;;;4973774;28;20058;-65
2021/04/04 06:27:09;;;;;;;1.42;1.23;;;3.60;99.90;;;;;;4977960;28;20047;-65
2021/04/04 06:30:20;;;;;;;2.85;1.13;;;3.60;99.90;;;;;;4981424;28;20261;-63
2021/04/04 06:33:05;;;;;;;3.08;1.30;;;3.70;99.90;;;;;;4978852;28;20093;-63
2021/04/04 06:35:42;;;;;;;2.72;1.15;;;3.70;99.90;;;;;;4982244;28;20636;-62
2021/04/04 06:38:38;;;;;;;3.35;1.42;;;3.70;99.90;;;;;;4976661;28;20697;-63
2021/04/04 06:41:25;;;;;;;5.47;1.80;;;3.80;99.90;;;;;;4977234;28;20077;-63
2021/04/04 06:44:07;;;;;;;4.68;1.45;;;3.80;99.90;;;;;;4997486;28;20058;-68
2021/04/04 06:46:43;;;;;;;3.60;1.27;;;3.90;99.90;;;;;;4977756;28;20086;-62
2021/04/04 06:49:37;;;;;;;1.80;1.08;;;4.00;99.90;;;;;;4978270;28;20046;-63
2021/04/04 06:52:34;;;;;;;3.45;1.77;;;4.00;99.90;;;;;;4977805;28;20046;-63
2021/04/04 06:55:10;;;;;;;7.13;3.72;;;4.00;99.90;;;;;;4979603;28;20141;-65
2021/04/04 06:57:52;;;;;;;5.50;0.85;;;4.10;99.90;;;;;;4992064;28;20058;-66
2021/04/04 07:00:24;;;;;;;3.63;0.90;;;4.10;99.90;;;;;;4973157;28;20058;-62
2021/04/04 07:03:04;;;;;;;4.65;1.15;;;4.10;99.90;;;;;;4976052;28;20042;-64
2021/04/04 07:05:32;;;;;;;;;;;4.20;99.90;;;;;;4975953;28;20125;-63
2021/04/04 07:08:36;;;;;;;2.70;0.70;;;4.20;99.90;;;;;;4977795;28;20460;-66
2021/04/04 07:11:10;;;;;;;1.83;0.77;;;4.30;99.90;;;;;;4976727;28;20074;-62
2021/04/04 07:13:45;;;;;;;6.68;1.33;;;4.30;99.90;;;;;;4979475;28;20385;-63
2021/04/04 07:16:36;;;;;;;3.35;0.95;;;4.30;99.90;;;;;;4975804;28;20492;-62
2021/04/04 07:19:34;;;;;;;3.22;1.52;;;4.40;99.90;;;;;;4994889;28;20042;-62
2021/04/04 07:22:13;;;;;;;3.25;1.23;;;4.50;99.90;;;;;;4977247;28;20153;-62
2021/04/04 07:24:58;;;;;;;1.08;0.88;;;4.50;99.90;;;;;;4976807;28;20069;-68
2021/04/04 07:27:46;;;;;;;9.90;2.90;;;4.50;99.90;;;;;;4976646;28;20455;-65
2021/04/04 07:30:33;;;;;;;3.47;1.33;;;4.60;99.90;;;;;;4977430;28;20491;-62
2021/04/04 07:33:07;;;;;;;5.25;1.02;;;4.60;99.90;;;;;;4978352;28;21974;-64
2021/04/04 07:35:59;;;;;;;3.17;0.77;;;4.70;99.90;;;;;;4971943;28;20138;-63
2021/04/04 07:38:45;;;;;;;6.25;0.77;;;4.70;99.90;;;;;;4977722;28;20404;-63
2021/04/04 07:41:37;;;;;;;3.15;1.50;;;4.80;99.90;;;;;;4982196;28;20058;-65
2021/04/04 07:44:32;;;;;;;6.20;1.75;;;4.80;99.90;;;;;;4980716;28;20134;-63
2021/04/04 07:47:17;;;;;;;6.05;1.58;;;4.90;99.90;;;;;;4980710;28;20104;-62
2021/04/04 07:50:00;;;;;;;4.88;1.60;;;5.00;99.90;;;;;;4983776;28;20050;-65
2021/04/04 07:52:34;;;;;;;2.83;1.33;;;5.10;99.90;;;;;;4979138;28;20459;-66
2021/04/04 07:55:16;;;;;;;10.23;3.28;;;5.00;99.90;;;;;;4979600;28;20049;-62
2021/04/04 07:57:59;;;;;;;1.80;0.90;;;5.10;99.90;;;;;;4981130;28;20055;-62
2021/04/04 08:00:27;;;;;;;5.78;1.75;;;5.10;99.90;;;;;;4983043;28;20496;-66
2021/04/04 08:03:08;;;;;;;7.13;2.47;;;5.00;99.90;;;;;;4981297;28;20100;-65
2021/04/04 08:05:41;;;;;;;7.70;1.73;;;5.10;99.90;;;;;;4974017;28;20132;-65
2021/04/04 08:08:11;;;;;;;5.75;1.25;;;5.10;99.90;;;;;;4992498;28;20562;-64
2021/04/04 08:10:51;;;;;;;2.80;1.20;;;5.10;99.90;;;;;;4980787;28;22576;-62
2021/04/04 08:13:30;;;;;;;3.97;1.08;;;5.20;99.90;;;;;;4980064;28;20058;-63
2021/04/04 08:16:22;;;;;;;2.05;1.13;;;5.20;99.90;;;;;;4981607;28;20124;-67
2021/04/04 08:18:49;;;;;;;6.50;1.27;;;5.10;99.90;;;;;;4979674;28;20492;-63
2021/04/04 08:21:35;;;;;;;2.38;0.70;;;5.10;99.90;;;;;;4982529;28;20105;-68
2021/04/04 08:24:06;;;;;;;2.83;0.80;;;5.20;99.90;;;;;;4981620;28;20049;-62
2021/04/04 08:27:00;;;;;;;5.60;0.90;;;5.10;99.90;;;;;;4981074;28;20061;-63
2021/04/04 08:29:37;;;;;;;2.75;0.52;;;5.20;99.90;;;;;;4981446;28;20073;-64
2021/04/04 08:32:11;;;;;;;3.90;1.23;;;5.40;99.90;;;;;;4979464;28;20057;-67
2021/04/04 08:34:44;;;;;;;7.57;3.22;;;5.40;99.90;;;;;;4981414;28;20050;-62
2021/04/04 08:37:19;;;;;;;5.85;1.02;;;5.50;99.90;;;;;;4980014;28;20043;-65
2021/04/04 08:39:55;;;;;;;4.63;1.30;;;5.60;99.90;;;;;;4977491;28;20059;-64
2021/04/04 08:42:22;;;;;;;4.30;1.35;;;5.80;99.90;;;;;;4978861;28;20061;-63
2021/04/04 08:45:02;;;;;;;3.63;1.10;;;5.90;99.90;;;;;;4979490;28;20062;-62
2021/04/04 08:47:31;;;;;;;1.70;0.60;;;6.00;99.90;;;;;;4983134;28;20089;-63
2021/04/04 08:50:05;;;;;;;2.08;0.63;;;6.10;99.90;;;;;;4980274;28;20039;-65
2021/04/04 08:52:39;;;;;;;2.30;0.80;;;6.20;99.90;;;;;;4977630;28;20057;-63
2021/04/04 08:55:07;;;;;;;0.77;0.77;;;6.30;99.90;;;;;;4980750;28;20046;-64
2021/04/04 08:57:44;;;;;;;3.58;1.02;;;6.50;99.90;;;;;;4979925;28;20078;-67
2021/04/04 09:00:12;;;;;;;1.95;0.90;;;6.60;99.90;;;;;;4976825;28;20058;-63
2021/04/04 09:02:48;;;;;;;5.38;1.55;;;6.70;99.90;;;;;;4980474;28;20137;-67
2021/04/04 09:05:15;;;;;;;2.90;0.55;;;6.70;99.90;;;;;;4981387;28;20054;-64
2021/04/04 09:07:43;;;;;;;1.20;1.00;;;6.80;99.90;;;;;;4979068;28;20507;-67
2021/04/04 09:10:14;;;;;;;2.60;0.80;;;6.90;99.90;;;;;;4975701;28;20051;-65
2021/04/04 09:12:43;;;;;;;1.88;1.50;;;6.90;99.90;;;;;;4987849;28;20056;-65
2021/04/04 09:15:11;;;;;;;4.32;0.55;;;6.90;99.90;;;;;;4979042;28;20369;-65
2021/04/04 09:17:48;;;;;;;1.23;0.57;;;6.90;99.90;;;;;;4980479;28;20472;-65
2021/04/04 09:20:14;;;;;;;1.27;0.80;;;6.90;99.90;;;;;;4977593;28;20359;-63
2021/04/04 09:22:48;;;;;;;3.15;1.77;;;7.00;99.90;;;;;;4983306;28;20399;-67
2021/04/04 09:25:16;;;;;;;3.65;1.58;;;7.20;99.90;;;;;;4991493;28;20050;-62
2021/04/04 09:27:43;;;;;;;6.00;1.25;;;7.30;99.90;;;;;;4981076;28;20062;-67
2021/04/04 09:30:23;;;;;;;3.20;0.85;;;7.20;99.90;;;;;;4978291;28;20157;-63
2021/04/04 09:32:54;;;;;;;4.10;1.40;;;7.20;99.90;;;;;;4976335;28;20453;-64
2021/04/04 09:35:22;;;;;;;2.55;0.93;;;7.20;99.90;;;;;;4978272;28;20042;-63
2021/04/04 09:37:50;;;;;;;3.75;1.02;;;7.20;99.90;;;;;;4979850;28;20105;-63
2021/04/04 09:40:18;;;;;;;6.40;1.25;;;7.40;99.90;;;;;;4976580;28;20584;-62
2021/04/04 09:42:45;;;;;;;7.93;1.88;;;7.50;99.90;;;;;;4984864;28;20082;-63
2021/04/04 09:45:21;;;;;;;3.58;1.23;;;7.50;99.90;;;;;;4980315;28;20504;-64
2021/04/04 09:47:50;;;;;;;2.60;1.35;;;7.60;99.90;;;;;;4982378;28;20145;-63
2021/04/04 09:50:30;;;;;;;3.70;1.27;;;7.50;99.90;;;;;;4977081;28;20057;-64
2021/04/04 09:52:57;;;;;;;4.35;1.00;;;7.40;99.90;;;;;;4980081;28;20054;-68
2021/04/04 09:55:26;;;;;;;1.65;1.23;;;7.40;99.90;;;;;;4980603;28;20439;-64
2021/04/04 09:57:59;;;;;;;4.13;1.23;;;7.60;99.90;;;;;;4976003;28;20177;-64
2021/04/04 10:00:34;;;;;;;3.67;1.52;;;7.70;99.90;;;;;;4977740;28;20069;-63
2021/04/04 10:03:15;;;;;;;5.95;1.80;;;7.70;99.90;;;;;;4975082;28;20078;-62
2021/04/04 10:05:43;;;;;;;;;;;7.80;99.90;;;;;;4978090;28;20043;-62
2021/04/04 10:08:19;;;;;;;1.50;0.93;;;7.70;99.90;;;;;;4976618;28;20368;-66
2021/04/04 10:10:54;;;;;;;9.23;1.75;;;7.80;99.90;;;;;;4979106;28;20062;-67
2021/04/04 10:13:25;;;;;;;4.97;1.27;;;7.80;99.90;;;;;;4998432;28;20049;-64
2021/04/04 10:15:53;;;;;;;4.55;1.42;;;7.80;99.90;;;;;;4978432;28;20068;-63
2021/04/04 10:18:21;;;;;;;4.53;0.90;;;7.90;99.90;;;;;;4978990;28;20456;-62
2021/04/04 10:20:52;;;;;;;6.70;1.48;;;8.00;99.90;;;;;;4977524;28;20101;-64
2021/04/04 10:23:27;;;;;;;5.40;1.38;;;7.90;99.90;;;;;;4977233;28;20185;-68
2021/04/04 10:26:02;;;;;;;3.72;2.47;;;8.10;99.90;;;;;;4978839;28;20050;-63
2021/04/04 10:28:53;;;;;;;6.53;1.52;;;8.10;99.90;;;;;;4977660;28;20046;-66
2021/04/04 10:31:22;;;;;;;4.10;1.48;;;8.20;99.90;;;;;;4979490;28;20065;-66
2021/04/04 10:33:59;;;;;;;3.15;1.23;;;8.20;99.90;;;;;;4978060;28;20054;-63
2021/04/04 10:36:27;;;;;;;5.88;1.20;;;8.10;99.90;;;;;;4978177;28;20066;-65
2021/04/04 10:38:55;;;;;;;2.28;1.10;;;8.20;99.90;;;;;;4981000;28;20042;-65
2021/04/04 10:41:31;;;;;;;2.97;0.88;;;8.20;99.90;;;;;;4979723;28;20057;-64
2021/04/04 10:43:58;;;;;;;2.75;1.33;;;8.10;99.90;;;;;;4980429;28;20066;-65
2021/04/04 10:46:29;;;;;;;5.30;1.20;;;8.10;99.90;;;;;;4976268;28;20050;-64
2021/04/04 10:48:59;;;;;;;1.83;1.00;;;8.30;99.90;;;;;;4982287;28;20050;-64
2021/04/04 10:51:26;;;;;;;11.60;2.03;;;8.30;99.90;;;;;;4978641;28;20055;-64
2021/04/04 10:53:53;;;;;;;4.93;1.63;;;8.20;99.90;;;;;;4978854;28;20145;-67
2021/04/04 10:56:19;;;;;;;8.57;2.67;;;8.20;99.90;;;;;;4990489;28;20050;-63
2021/04/04 10:58:48;;;;;;;2.05;1.60;;;8.20;99.90;;;;;;4982232;28;20057;-64
2021/04/04 11:01:14;;;;;;;3.63;1.27;;;8.20;99.90;;;;;;4979859;28;20072;-66
2021/04/04 11:03:42;;;;;;;9.07;1.48;;;8.10;99.90;;;;;;4979785;28;20054;-64
2021/04/04 11:06:12;;;;;;;3.07;1.60;;;8.30;99.90;;;;;;4977098;28;20069;-63
2021/04/04 11:08:41;;;;;;;4.15;2.83;;;8.40;99.90;;;;;;4975460;28;21159;-64
2021/04/04 11:11:10;;;;;;;4.50;2.28;;;8.40;99.90;;;;;;4979888;28;20058;-62
2021/04/04 11:13:38;;;;;;;13.80;1.80;;;8.30;99.90;;;;;;4986715;28;20047;-62
2021/04/04 11:16:07;;;;;;;2.78;2.05;;;8.30;99.90;;;;;;4979337;28;20372;-63
2021/04/04 11:18:46;;;;;;;4.22;1.48;;;8.30;99.90;;;;;;4978029;28;20168;-62
2021/04/04 11:21:26;;;;;;;4.70;1.35;;;8.30;99.90;;;;;;4984539;28;20053;-64
2021/04/04 11:23:53;;;;;;;4.22;1.42;;;8.50;99.90;;;;;;4986280;28;20050;-62
2021/04/04 11:26:54;;;;;;;5.97;1.58;;;8.50;99.90;;;;;;4983554;28;20061;-63
2021/04/04 11:29:23;;;;;;;;;;;8.50;99.90;;;;;;4984958;28;20043;-64
2021/04/04 11:31:51;;;;;;;5.45;3.10;;;8.50;99.90;;;;;;4983452;28;19990;-63
2021/04/04 11:34:22;;;;;;;5.00;1.23;;;8.40;99.90;;;;;;4977751;28;20054;-63
2021/04/04 11:36:49;;;;;;;3.28;1.45;;;8.30;99.90;;;;;;4983958;28;20101;-63
2021/04/04 11:39:16;;;;;;;4.30;0.95;;;8.40;99.90;;;;;;4984396;28;20077;-63
2021/04/04 11:41:49;;;;;;;4.53;0.90;;;8.40;99.90;;;;;;4985232;28;20046;-62
2021/04/04 11:44:15;;;;;;;4.82;1.20;;;8.40;99.90;;;;;;4988989;28;20050;-65
2021/04/04 11:46:47;;;;;;;1.05;0.80;;;8.30;99.90;;;;;;4984722;28;20046;-63
2021/04/04 11:49:33;;;;;;;2.47;1.38;;;8.40;99.90;;;;;;4985075;28;20054;-68
2021/04/04 11:52:18;;;;;;;5.03;0.88;;;8.40;99.90;;;;;;4983925;28;20081;-62
2021/04/04 11:54:45;;;;;;;3.05;1.65;;;8.50;99.90;;;;;;4985121;28;20050;-65
2021/04/04 11:57:27;;;;;;;2.28;1.17;;;8.50;99.90;;;;;;4982770;28;20073;-63
2021/04/04 11:59:55;;;;;;;5.50;1.83;;;8.50;99.90;;;;;;4982707;28;20050;-64
2021/04/04 12:02:25;;;;;;;3.55;1.23;;;8.70;99.90;;;;;;4982810;28;20054;-63
2021/04/04 12:05:05;;;;;;;6.63;2.28;;;8.80;99.90;;;;;;4982888;28;20058;-63
2021/04/04 12:07:52;;;;;;;;;;;8.60;99.90;;;;;;4977730;28;20061;-64
2021/04/04 12:10:27;;;;;;;2.30;0.90;;;8.60;99.90;;;;;;4975164;28;19925;-66
2021/04/04 12:12:54;;;;;;;2.00;0.90;;;8.70;99.90;;;;;;4982581;28;20050;-64
2021/04/04 12:15:23;;;;;;;3.70;1.30;;;8.90;99.90;;;;;;4983216;28;20054;-66
2021/04/04 12:17:57;;;;;;;5.55;2.03;;;8.90;99.90;;;;;;4983166;28;20172;-63
2021/04/04 12:20:32;;;;;;;9.60;1.92;;;8.70;99.90;;;;;;4981115;28;20049;-64
2021/04/04 12:22:58;;;;;;;2.50;1.42;;;8.70;99.90;;;;;;4982306;28;20472;-64
2021/04/04 12:25:27;;;;;;;9.07;1.63;;;8.60;99.90;;;;;;4978691;28;20521;-66
2021/04/04 12:27:58;;;;;;;3.30;1.55;;;8.60;99.90;;;;;;4977512;28;20077;-64
2021/04/04 12:30:31;;;;;;;2.08;1.13;;;8.70;99.90;;;;;;4973628;28;20058;-64
2021/04/04 12:33:17;;;;;;;8.32;1.70;;;9.00;99.90;;;;;;4980018;28;20073;-64
2021/04/04 12:35:49;;;;;;;4.13;1.80;;;9.10;99.90;;;;;;4978884;28;20140;-63
2021/04/04 12:38:27;;;;;;;5.32;2.17;;;9.10;99.90;;;;;;4975873;28;20054;-67
2021/04/04 12:40:56;;;;;;;5.47;2.05;;;8.90;99.90;;;;;;4979975;28;20061;-67
2021/04/04 12:43:23;;;;;;;8.43;2.20;;;8.90;99.90;;;;;;4977916;28;20058;-63
2021/04/04 12:45:50;;;;;;;10.32;3.28;;;9.00;99.90;;;;;;4979652;28;20058;-66
2021/04/04 12:48:24;;;;;;;5.13;2.28;;;9.10;99.90;;;;;;4976809;28;20638;-63
2021/04/04 12:50:56;;;;;;;2.88;1.33;;;9.20;99.90;;;;;;4979098;28;20116;-66
2021/04/04 12:53:36;;;;;;;6.82;1.75;;;9.20;99.90;;;;;;4978083;28;20046;-65
2021/04/04 12:56:04;;;;;;;5.53;1.90;;;9.20;99.90;;;;;;4975555;28;20050;-64
2021/04/04 12:58:36;;;;;;;3.65;2.25;;;9.20;99.90;;;;;;4978095;28;20479;-67
2021/04/04 13:01:05;;;;;;;5.32;1.95;;;9.30;99.90;;;;;;4978701;28;20077;-68
2021/04/04 13:03:37;;;;;;;4.50;2.35;;;9.40;99.90;;;;;;4978772;28;20500;-62
2021/04/04 13:06:04;;;;;;;7.45;2.05;;;9.50;99.90;;;;;;4978838;28;20050;-64
2021/04/04 13:08:32;;;;;;;7.75;2.28;;;9.50;99.90;;;;;;4977956;28;20480;-65
2021/04/04 13:11:04;;;;;;;10.75;2.88;;;9.40;99.90;;;;;;4979346;28;20132;-64
2021/04/04 13:13:43;;;;;;;9.65;3.92;;;9.30;99.90;;;;;;4977917;28;20404;-65
2021/04/04 13:16:15;;;;;;;7.15;1.90;;;9.40;99.90;;;;;;4977478;28;20038;-64
2021/04/04 13:18:47;;;;;;;4.55;2.10;;;9.40;99.90;;;;;;4977974;28;20081;-67
2021/04/04 13:21:17;;;;;;;5.30;1.80;;;9.40;99.90;;;;;;4979826;28;20057;-63
2021/04/04 13:23:47;;;;;;;6.10;2.28;;;9.40;99.90;;;;;;4993550;28;20044;-66
2021/04/04 13:26:36;;;;;;;12.07;2.53;;;9.50;99.90;;;;;;4975513;28;20053;-64
2021/04/04 13:29:04;;;;;;;10.68;3.22;;;9.20;99.90;;;;;;4978652;28;20054;-64